Dennison, MN

7:05 PM CST on February 05, 2016 (GMT -0600)
Stanton | | Change Station
CLOSE
Current Station
Airport
Location: Stanton,
Elevation: 919 ft
Nearby Weather Stations

Elev 919 ft 44.47 °N, 93.01 °W | Updated 10 minutes ago

Light Snow
Light Snow
25 °F
Feels Like 16 °F
N
8
Wind Variable Wind from South

Today
High -- | Low -- °F
--% Chance of Precip.
Yesterday
High -- | Low -- °F
Precip. -- in
Pressure 30.20 in
Visibility 10.0 miles
Clouds Overcast 2800 ft
Windchill 16 °F
Dew Point 20 °F
Humidity 82%
Rainfall 0.00 in
Snow Depth Not available.
7:26 AM 5:26 PM
Waning Crescent, 8% visible
METAR KSYN 060055Z AUTO 18007KT 10SM -SN OVC028 M04/M07 A3020 RMK AO2 T10411068
Pressure 30.20 in
Visibility 10.0 miles
Clouds Overcast 2800 ft
Windchill 16 °F
Dew Point 20 °F
Humidity 82%
Rainfall 0.00 in
Snow Depth Not available.
7:26 AM 5:26 PM
Waning Crescent, 8% visible
METAR KSYN 060055Z AUTO 18007KT 10SM -SN OVC028 M04/M07 A3020 RMK AO2 T10411068

10-Day Weather Forecast

Almanac

Astronomy

Feb. 05, 2016 Rise Set
Actual Time
Civil Twilight
Nautical Twilight
Astronomical Twilight
Moon
Length of Visible Light
Length of Day
Tomorrow will be .
, % of the Moon is Illuminated

Today's Extremes

State Highs State Lows

Community

WunderPhotos

Upload Photos

1,890,902 photos uploaded!

WunderBlog® & News

Nearby

Air Quality

  Air Quality AQ Index Pollutant
Not available.

Snow Depth

Station Depth Elevation

Earthquake Activity

City Distance Mag. Time & Date
Minimum magnitude displayed is 2.5.

Coastal Water Temperatures

Place Temperature

Stations

Nearby Weather Stations

Station Location Temp. Windchill Dew Point Humidity Wind Precip. Elev Updated Type
                   

Watches & Warnings

There are currently no watches in effect.